Terminal Aerodrome Forecast
Issued by NWS

Home | Current Version | Previous Version | Text Only | Print | Product List | Glossary On
Versions: 1 2 3 4 5 6 7 8 9 10 11 12 13 14 15 16 17 18 19 20 21 22 23 24 25 26 27 28 29 30 31 32 33
000
FTUS41 KBOX 292324
TAFFMH
TAF
KFMH 292324Z 3000/3024 23009KT P6SM SCT250
     FM300600 25007KT P6SM SCT003
     FM300800 25007KT 6SM BR BKN003
     FM301300 22011KT P6SM BKN200
     FM301800 21014G26KT P6SM BKN010 BKN050
     FM302100 21014G30KT 6SM BR BKN010 BKN050=

USA.gov is the U.S. government's official web portal to all federal, state and local government web resources and services.